createdAt,value
2023-03-20T00:01:17.562Z,25.90
2023-03-20T00:03:46.200Z,25.80
2023-03-20T00:06:21.976Z,24.70
2023-03-20T00:08:52.756Z,25.10
2023-03-20T00:11:49.981Z,26.00
2023-03-20T00:14:20.704Z,25.90
2023-03-20T00:16:49.517Z,26.00
2023-03-20T00:19:25.674Z,26.80
2023-03-20T00:21:55.109Z,26.70
2023-03-20T00:24:23.686Z,26.50
2023-03-20T00:27:12.929Z,26.30
2023-03-20T00:29:42.850Z,27.30
2023-03-20T00:32:13.318Z,27.30
2023-03-20T00:34:43.812Z,26.50
2023-03-20T00:37:14.737Z,26.50
2023-03-20T00:39:46.812Z,27.90
2023-03-20T00:42:25.118Z,26.20
2023-03-20T00:47:52.294Z,27.70
2023-03-20T00:50:23.725Z,27.00
2023-03-20T00:52:52.427Z,27.90
2023-03-20T00:55:22.051Z,27.80
2023-03-20T00:58:10.791Z,28.80
2023-03-20T01:00:42.195Z,28.30
2023-03-20T01:06:01.116Z,27.00
2023-03-20T01:08:30.419Z,27.30
2023-03-20T01:10:59.210Z,25.70
2023-03-20T01:13:29.741Z,27.90
2023-03-20T01:15:58.952Z,27.50
2023-03-20T01:18:27.737Z,26.70
2023-03-20T01:20:57.126Z,26.00
2023-03-20T01:23:27.043Z,24.70
2023-03-20T01:25:57.670Z,24.50
2023-03-20T01:28:32.638Z,23.80
2023-03-20T01:31:01.086Z,23.60
2023-03-20T01:33:50.762Z,18.90
2023-03-20T01:36:22.240Z,25.50
2023-03-20T01:38:56.524Z,24.70
2023-03-20T01:41:26.753Z,24.30
2023-03-20T01:43:55.542Z,24.80
2023-03-20T01:46:28.750Z,24.50
2023-03-20T01:49:28.589Z,23.40
2023-03-20T01:52:02.265Z,23.40
2023-03-20T01:54:37.497Z,24.10
2023-03-20T01:57:20.591Z,23.70
2023-03-20T01:59:58.549Z,22.60
2023-03-20T02:02:32.351Z,21.30
2023-03-20T02:05:04.140Z,22.20
2023-03-20T02:07:33.447Z,20.90
2023-03-20T02:10:11.519Z,20.00
2023-03-20T02:12:57.795Z,17.80
2023-03-20T02:15:35.844Z,19.70
2023-03-20T02:18:14.221Z,19.40
2023-03-20T02:24:18.863Z,18.60
2023-03-20T02:27:20.522Z,18.40
2023-03-20T02:30:01.701Z,17.00
2023-03-20T02:32:56.237Z,19.30
2023-03-20T02:35:51.292Z,18.10
2023-03-20T02:38:35.667Z,18.20
2023-03-20T02:41:10.148Z,18.30
2023-03-20T02:43:49.099Z,18.80
2023-03-20T02:46:28.266Z,18.40
2023-03-20T02:49:11.162Z,19.10
2023-03-20T02:51:48.749Z,16.30
2023-03-20T02:54:27.264Z,21.40
2023-03-20T02:57:04.461Z,18.90
2023-03-20T02:59:52.081Z,17.30
2023-03-20T03:02:23.952Z,14.30
2023-03-20T03:05:01.798Z,16.30
2023-03-20T03:07:33.091Z,16.50
2023-03-20T03:10:08.446Z,16.00
2023-03-20T03:12:42.547Z,15.10
2023-03-20T03:15:15.849Z,15.50
2023-03-20T03:17:50.067Z,15.20
2023-03-20T03:20:32.776Z,14.80
2023-03-20T03:23:02.285Z,12.80
2023-03-20T03:25:40.591Z,13.60
2023-03-20T03:28:23.818Z,13.00
2023-03-20T03:30:53.818Z,14.50
2023-03-20T03:33:33.072Z,18.70
2023-03-20T03:36:27.765Z,18.40
2023-03-20T03:38:59.321Z,21.50
2023-03-20T03:41:50.739Z,22.00
2023-03-20T03:44:31.920Z,20.00
2023-03-20T03:47:08.695Z,20.30
2023-03-20T03:49:39.747Z,19.90
2023-03-20T03:52:14.223Z,19.10
2023-03-20T03:54:50.019Z,17.50
2023-03-20T03:57:37.133Z,18.60
2023-03-20T04:00:12.201Z,20.00
2023-03-20T04:02:44.338Z,19.20
2023-03-20T04:05:17.478Z,20.20
2023-03-20T04:07:47.926Z,21.20
2023-03-20T04:10:16.735Z,17.30
2023-03-20T04:12:55.475Z,23.90
2023-03-20T04:15:24.157Z,24.20
2023-03-20T04:17:52.641Z,22.20
2023-03-20T04:20:21.023Z,21.00
2023-03-20T04:22:51.355Z,23.80
2023-03-20T04:25:22.747Z,22.70
2023-03-20T04:27:54.656Z,20.40
2023-03-20T04:30:48.431Z,21.00
2023-03-20T04:33:24.695Z,21.60
2023-03-20T04:36:25.756Z,19.90
2023-03-20T04:38:57.517Z,21.90
2023-03-20T04:41:26.905Z,24.20
2023-03-20T04:43:58.257Z,24.60
2023-03-20T04:46:27.553Z,16.90
2023-03-20T04:48:56.241Z,23.40
2023-03-20T04:51:28.717Z,21.80
2023-03-20T04:53:57.403Z,21.70
2023-03-20T04:56:31.316Z,20.00
2023-03-20T04:59:19.975Z,17.10
2023-03-20T05:01:50.192Z,15.90
2023-03-20T05:04:19.623Z,12.50
2023-03-20T05:06:49.612Z,16.00
2023-03-20T05:09:20.552Z,14.50
2023-03-20T05:11:49.749Z,15.80
2023-03-20T05:14:44.239Z,14.70
2023-03-20T05:17:27.884Z,14.80
2023-03-20T05:20:15.537Z,14.40
2023-03-20T05:22:57.915Z,14.70
2023-03-20T05:25:55.705Z,14.50
2023-03-20T05:28:29.942Z,15.30
2023-03-20T05:31:17.441Z,14.30
2023-03-20T05:34:03.319Z,14.10
2023-03-20T05:36:57.802Z,14.20
2023-03-20T05:39:32.636Z,14.40
2023-03-20T05:42:17.945Z,14.30
2023-03-20T05:45:10.491Z,14.00
2023-03-20T05:47:57.575Z,14.30
2023-03-20T05:50:29.027Z,14.70
2023-03-20T05:53:08.669Z,10.70
2023-03-20T05:55:55.995Z,13.50
2023-03-20T05:58:47.526Z,13.70
2023-03-20T06:01:39.551Z,14.10
2023-03-20T06:04:28.102Z,14.10
2023-03-20T06:07:10.512Z,13.90
2023-03-20T06:09:41.144Z,14.50
2023-03-20T06:12:13.005Z,14.90
2023-03-20T06:14:41.793Z,11.00
2023-03-20T06:17:13.245Z,13.10
2023-03-20T06:19:45.003Z,13.00
2023-03-20T06:22:13.600Z,13.60
2023-03-20T06:24:46.677Z,12.50
2023-03-20T06:27:16.202Z,13.50
2023-03-20T06:29:48.359Z,14.60
2023-03-20T06:32:19.706Z,13.60
2023-03-20T06:34:50.126Z,14.30
2023-03-20T06:37:19.700Z,14.60
2023-03-20T06:39:48.423Z,17.80
2023-03-20T06:42:16.904Z,18.30
2023-03-20T06:44:45.801Z,18.50
2023-03-20T06:47:28.743Z,19.40
2023-03-20T06:52:27.321Z,19.40
2023-03-20T06:55:19.570Z,18.50
2023-03-20T06:57:47.989Z,19.00
2023-03-20T07:00:18.331Z,18.20
2023-03-20T07:02:47.568Z,19.20
2023-03-20T07:05:16.659Z,20.70
2023-03-20T07:07:45.457Z,22.00
2023-03-20T07:10:14.554Z,19.60
2023-03-20T07:12:48.790Z,20.50
2023-03-20T07:15:34.647Z,21.90
2023-03-20T07:18:03.463Z,23.00
2023-03-20T07:20:34.815Z,22.10
2023-03-20T07:23:03.696Z,20.70
2023-03-20T07:25:42.151Z,21.50
2023-03-20T07:28:14.690Z,22.30
2023-03-20T07:30:45.425Z,23.60
2023-03-20T07:33:17.491Z,23.10
2023-03-20T07:35:46.732Z,23.50
2023-03-20T07:38:15.583Z,23.80
2023-03-20T07:40:56.151Z,23.70
2023-03-20T07:43:25.661Z,24.70
2023-03-20T07:46:26.849Z,23.40
2023-03-20T07:48:56.926Z,24.00
2023-03-20T07:51:25.841Z,23.90
2023-03-20T07:53:54.402Z,23.90
2023-03-20T07:56:22.790Z,24.70
2023-03-20T08:01:21.386Z,25.10
2023-03-20T08:03:49.901Z,25.60
2023-03-20T08:06:29.515Z,24.00
2023-03-20T08:08:59.124Z,23.80
2023-03-20T08:11:28.638Z,18.30
2023-03-20T08:13:58.038Z,23.60
2023-03-20T08:16:26.474Z,23.80
2023-03-20T08:19:03.622Z,23.80
2023-03-20T08:21:32.711Z,24.80
2023-03-20T08:24:01.700Z,24.10
2023-03-20T08:26:32.029Z,24.10
2023-03-20T08:29:00.817Z,23.70
2023-03-20T08:31:31.861Z,24.20
2023-03-20T08:36:29.235Z,25.20
2023-03-20T08:38:57.621Z,23.20
2023-03-20T08:41:26.303Z,23.70
2023-03-20T08:43:54.638Z,22.60
2023-03-20T08:46:24.061Z,17.40
2023-03-20T08:48:52.875Z,23.80
2023-03-20T08:51:21.566Z,23.20
2023-03-20T08:53:50.152Z,23.20
2023-03-20T08:56:18.794Z,22.20
2023-03-20T08:58:48.236Z,21.40
2023-03-20T09:01:16.756Z,22.20
2023-03-20T09:03:45.725Z,20.00
2023-03-20T09:06:14.298Z,21.70
2023-03-20T09:08:42.989Z,23.30
2023-03-20T09:11:11.876Z,22.40
2023-03-20T09:13:41.382Z,21.80
2023-03-20T09:16:10.590Z,20.20
2023-03-20T09:18:41.111Z,21.00
2023-03-20T09:21:09.696Z,21.00
2023-03-20T09:23:38.077Z,20.20
2023-03-20T09:26:07.584Z,15.40
2023-03-20T09:28:36.577Z,18.70
2023-03-20T09:31:05.830Z,19.20
2023-03-20T09:33:34.674Z,20.80
2023-03-20T09:36:03.534Z,21.70
2023-03-20T09:38:32.656Z,20.10
2023-03-20T09:41:01.740Z,20.00
2023-03-20T09:43:48.370Z,21.30
2023-03-20T09:46:29.084Z,20.00
2023-03-20T09:49:29.774Z,21.50
2023-03-20T09:51:59.475Z,21.20
2023-03-20T09:54:50.995Z,21.00
2023-03-20T09:57:29.979Z,23.60
2023-03-20T10:00:01.795Z,22.10
2023-03-20T10:02:45.957Z,21.80
2023-03-20T10:05:23.337Z,23.20
2023-03-20T10:07:55.190Z,21.00
2023-03-20T10:10:48.658Z,16.00
2023-03-20T10:13:27.999Z,19.90
2023-03-20T10:16:02.282Z,21.50
2023-03-20T10:18:34.376Z,22.70
2023-03-20T10:21:19.060Z,20.90
2023-03-20T10:23:59.194Z,23.20
2023-03-20T10:26:27.674Z,21.60
2023-03-20T10:29:00.264Z,21.00
2023-03-20T10:31:43.882Z,23.30
2023-03-20T10:34:32.263Z,21.80
2023-03-20T10:37:39.738Z,22.10
2023-03-20T10:40:28.307Z,22.50
2023-03-20T10:42:59.768Z,23.40
2023-03-20T10:45:40.827Z,23.00
2023-03-20T10:48:39.611Z,22.50
2023-03-20T10:51:11.581Z,22.00
2023-03-20T10:53:48.659Z,22.30
2023-03-20T10:56:26.065Z,20.60
2023-03-20T10:58:58.630Z,21.30
2023-03-20T11:01:28.374Z,20.50
2023-03-20T11:03:57.482Z,21.50
2023-03-20T11:06:29.092Z,20.00
2023-03-20T11:08:58.604Z,19.90
2023-03-20T11:11:29.439Z,19.40
2023-03-20T11:13:58.948Z,21.50
2023-03-20T11:16:33.320Z,21.40
2023-03-20T11:19:09.011Z,20.10
2023-03-20T11:21:50.939Z,19.50
2023-03-20T11:24:29.944Z,18.50
2023-03-20T11:27:14.502Z,18.60
2023-03-20T11:29:45.848Z,18.70
2023-03-20T11:32:54.247Z,18.60
2023-03-20T11:35:26.751Z,18.90
2023-03-20T11:37:56.253Z,18.10
2023-03-20T11:40:31.991Z,18.80
2023-03-20T11:43:00.997Z,18.00
2023-03-20T11:45:37.412Z,20.40
2023-03-20T11:48:07.487Z,20.70
2023-03-20T11:50:37.866Z,19.40
2023-03-20T11:53:22.879Z,20.10
2023-03-20T11:56:12.384Z,19.30
2023-03-20T11:58:49.753Z,18.40
2023-03-20T12:01:18.437Z,19.60
2023-03-20T12:03:52.196Z,18.50
2023-03-20T12:06:22.791Z,18.90
2023-03-20T12:09:03.341Z,17.30
2023-03-20T12:11:49.848Z,18.10
2023-03-20T12:14:39.118Z,18.00
2023-03-20T12:17:28.391Z,17.20
2023-03-20T12:20:06.573Z,17.80
2023-03-20T12:22:43.194Z,17.90
2023-03-20T12:25:22.513Z,17.30
2023-03-20T12:27:58.227Z,16.90
2023-03-20T12:30:37.329Z,17.70
2023-03-20T12:33:12.594Z,18.50
2023-03-20T12:35:45.047Z,18.40
2023-03-20T12:38:25.616Z,19.40
2023-03-20T12:41:15.882Z,18.20
2023-03-20T12:43:56.038Z,17.80
2023-03-20T12:46:33.372Z,17.30
2023-03-20T12:49:04.884Z,16.60
2023-03-20T12:51:37.880Z,15.80
2023-03-20T12:54:56.138Z,17.50
2023-03-20T12:57:46.279Z,16.20
2023-03-20T13:00:17.386Z,15.60
2023-03-20T13:05:34.908Z,16.80
2023-03-20T13:08:18.550Z,16.30
2023-03-20T13:10:57.905Z,15.90
2023-03-20T13:16:14.693Z,15.90
2023-03-20T13:18:51.407Z,15.70
2023-03-20T13:21:25.241Z,16.10
2023-03-20T13:24:02.604Z,16.20
2023-03-20T13:26:41.534Z,16.00
2023-03-20T13:29:16.260Z,15.70
2023-03-20T13:31:54.167Z,16.20
2023-03-20T13:34:48.147Z,16.50
2023-03-20T13:37:23.993Z,15.90
2023-03-20T13:40:15.239Z,16.80
2023-03-20T13:43:02.649Z,17.10
2023-03-20T13:45:34.611Z,16.70
2023-03-20T13:48:37.810Z,17.40
2023-03-20T13:51:37.432Z,17.90
2023-03-20T13:54:30.922Z,16.30
2023-03-20T13:57:22.840Z,18.40
2023-03-20T14:00:00.146Z,18.50
2023-03-20T14:02:41.400Z,19.50
2023-03-20T14:05:16.951Z,18.70
2023-03-20T14:07:58.157Z,19.80
2023-03-20T14:10:27.025Z,18.10
2023-03-20T14:13:02.744Z,19.20
2023-03-20T14:15:36.197Z,19.90
2023-03-20T14:18:06.953Z,18.10
2023-03-20T14:20:44.210Z,19.00
2023-03-20T14:23:18.188Z,18.50
2023-03-20T14:25:46.803Z,17.90
2023-03-20T14:28:26.038Z,18.50
2023-03-20T14:31:37.873Z,18.60
2023-03-20T14:34:13.183Z,18.40
2023-03-20T14:37:01.851Z,18.80
2023-03-20T14:39:42.306Z,18.40
2023-03-20T14:42:20.106Z,17.70
2023-03-20T14:45:17.364Z,19.10
2023-03-20T14:47:50.558Z,18.80
2023-03-20T14:50:23.778Z,19.50
2023-03-20T14:53:08.210Z,17.60
2023-03-20T14:55:49.200Z,19.20
2023-03-20T14:58:53.520Z,21.80
2023-03-20T15:01:21.963Z,24.00
2023-03-20T15:04:09.731Z,24.20
2023-03-20T15:06:54.919Z,25.60
2023-03-20T15:09:24.008Z,24.20
2023-03-20T15:11:52.896Z,35.10
2023-03-20T15:14:26.643Z,24.50
2023-03-20T15:16:59.505Z,34.30
2023-03-20T15:19:28.548Z,27.00
2023-03-20T15:21:57.481Z,27.80
2023-03-20T15:24:30.276Z,31.30
2023-03-20T15:27:00.754Z,29.60
2023-03-20T15:29:29.907Z,35.10
2023-03-20T15:32:12.972Z,38.10
2023-03-20T15:34:43.263Z,32.50
2023-03-20T15:37:16.902Z,22.70
2023-03-20T15:39:52.116Z,32.30
2023-03-20T15:42:22.031Z,29.70
2023-03-20T15:44:52.450Z,27.90
2023-03-20T15:47:22.589Z,28.50
2023-03-20T15:49:58.692Z,29.20
2023-03-20T15:52:43.876Z,36.00
2023-03-20T15:55:16.697Z,34.90
2023-03-20T15:57:47.560Z,31.70
2023-03-20T16:02:48.713Z,29.20
2023-03-20T16:05:18.101Z,27.30
2023-03-20T16:07:47.709Z,29.10
2023-03-20T16:10:21.729Z,27.60
2023-03-20T16:12:54.921Z,29.60
2023-03-20T16:15:27.929Z,28.10
2023-03-20T16:17:58.133Z,50.40
2023-03-20T16:20:29.482Z,45.40
2023-03-20T16:23:02.071Z,43.20
2023-03-20T16:25:31.078Z,56.70
2023-03-20T16:27:59.436Z,54.30
2023-03-20T16:30:31.207Z,51.60
2023-03-20T16:33:02.046Z,76.70
2023-03-20T16:35:38.842Z,94.50
2023-03-20T16:38:36.496Z,56.10
2023-03-20T16:41:16.682Z,27.90
2023-03-20T16:43:51.555Z,25.40
2023-03-20T16:46:24.524Z,26.10
2023-03-20T16:48:57.037Z,24.70
2023-03-20T16:51:29.788Z,25.80
2023-03-20T16:54:01.596Z,26.70
2023-03-20T16:56:30.080Z,40.60
2023-03-20T16:58:58.549Z,45.20
2023-03-20T17:01:28.344Z,40.60
2023-03-20T17:06:45.095Z,39.10
2023-03-20T17:09:21.358Z,34.90
2023-03-20T17:11:51.796Z,27.70
2023-03-20T17:14:22.234Z,28.30
2023-03-20T17:16:53.683Z,26.40
2023-03-20T17:19:22.807Z,25.40
2023-03-20T17:21:51.389Z,25.20
2023-03-20T17:24:20.148Z,25.30
2023-03-20T17:26:56.002Z,24.20
2023-03-20T17:29:24.493Z,23.90
2023-03-20T17:31:53.156Z,23.70
2023-03-20T17:34:21.451Z,24.00
2023-03-20T17:36:50.035Z,23.70
2023-03-20T17:39:20.527Z,24.70
2023-03-20T17:41:49.047Z,24.90
2023-03-20T17:44:17.533Z,24.00
2023-03-20T17:47:05.982Z,24.40
2023-03-20T17:49:34.672Z,25.30
2023-03-20T17:52:03.256Z,26.70
2023-03-20T17:54:33.277Z,26.50
2023-03-20T17:57:02.515Z,25.10
2023-03-20T17:59:31.672Z,23.50
2023-03-20T18:02:00.137Z,21.40
2023-03-20T18:04:28.846Z,20.90
2023-03-20T18:06:58.144Z,25.30
2023-03-20T18:09:30.621Z,25.20
2023-03-20T18:11:59.513Z,25.40
2023-03-20T18:14:31.168Z,28.20
2023-03-20T18:16:59.653Z,28.00
2023-03-20T18:19:29.265Z,27.70
2023-03-20T18:21:57.649Z,30.10
2023-03-20T18:24:27.064Z,30.10
2023-03-20T18:26:59.943Z,28.50
2023-03-20T18:29:28.531Z,28.60
2023-03-20T18:31:56.897Z,28.00
2023-03-20T18:34:27.532Z,27.20
2023-03-20T18:36:56.728Z,24.10
2023-03-20T18:39:29.407Z,25.20
2023-03-20T18:41:58.405Z,28.60
2023-03-20T18:44:27.190Z,27.70
2023-03-20T18:46:55.547Z,28.40
2023-03-20T18:49:24.462Z,30.80
2023-03-20T18:51:54.292Z,31.60
2023-03-20T18:54:23.371Z,31.70
2023-03-20T18:57:00.076Z,33.00
2023-03-20T18:59:29.666Z,33.60
2023-03-20T19:01:58.090Z,32.50
2023-03-20T19:04:27.368Z,35.20
2023-03-20T19:06:57.561Z,35.90
2023-03-20T19:09:26.870Z,33.50
2023-03-20T19:11:55.557Z,33.70
2023-03-20T19:14:26.085Z,33.70
2023-03-20T19:16:58.766Z,33.00
2023-03-20T19:19:30.826Z,30.50
2023-03-20T19:21:59.203Z,29.10
2023-03-20T19:24:34.456Z,29.10
2023-03-20T19:27:03.032Z,28.10
2023-03-20T19:29:31.618Z,30.20
2023-03-20T19:32:00.185Z,28.80
2023-03-20T19:35:10.948Z,29.00
2023-03-20T19:37:17.744Z,29.00
2023-03-20T19:39:46.327Z,29.60
2023-03-20T19:42:46.974Z,31.50
2023-03-20T19:45:23.916Z,30.40
2023-03-20T19:50:26.953Z,30.90
2023-03-20T19:52:56.869Z,32.20
2023-03-20T19:57:56.814Z,32.10
2023-03-20T20:03:21.329Z,34.00
2023-03-20T20:05:51.179Z,33.40
2023-03-20T20:08:30.635Z,33.60
2023-03-20T20:11:12.155Z,35.80
2023-03-20T20:14:03.646Z,36.50
2023-03-20T20:16:30.966Z,33.40
2023-03-20T20:19:04.138Z,35.10
2023-03-20T20:24:23.349Z,37.30
2023-03-20T20:27:15.240Z,38.10
2023-03-20T20:29:49.452Z,39.00
2023-03-20T20:32:24.495Z,38.60
2023-03-20T20:40:32.973Z,38.90
2023-03-20T20:43:02.928Z,38.60
2023-03-20T20:45:43.875Z,39.80
2023-03-20T20:48:13.032Z,41.00
2023-03-20T20:50:43.596Z,41.90
2023-03-20T20:53:14.100Z,41.60
2023-03-20T20:55:43.096Z,39.20
2023-03-20T20:58:12.494Z,40.30
2023-03-20T21:00:51.799Z,36.80
2023-03-20T21:03:22.397Z,39.60
2023-03-20T21:05:52.799Z,40.00
2023-03-20T21:08:21.918Z,42.90
2023-03-20T21:10:55.608Z,42.30
2023-03-20T21:13:24.280Z,41.20
2023-03-20T21:15:59.604Z,40.90
2023-03-20T21:18:29.845Z,41.10
2023-03-20T21:21:10.206Z,39.00
2023-03-20T21:23:38.999Z,39.30
2023-03-20T21:26:11.398Z,39.00
2023-03-20T21:28:40.368Z,41.00
2023-03-20T21:31:24.197Z,42.20
2023-03-20T21:33:55.369Z,39.10
2023-03-20T21:36:24.047Z,37.20
2023-03-20T21:39:07.275Z,37.70
2023-03-20T21:41:38.063Z,39.20
2023-03-20T21:44:07.677Z,39.90
2023-03-20T21:50:23.167Z,38.00
2023-03-20T21:55:48.278Z,38.80
2023-03-20T21:58:36.869Z,37.50
2023-03-20T22:01:29.385Z,37.40
2023-03-20T22:04:22.151Z,35.60
2023-03-20T22:07:17.858Z,33.10
2023-03-20T22:12:52.837Z,34.70
2023-03-20T22:21:27.400Z,30.70
2023-03-20T22:35:37.961Z,33.50
2023-03-20T22:46:19.571Z,33.10
2023-03-20T22:48:51.616Z,25.80
2023-03-20T22:51:28.632Z,32.70
2023-03-20T22:54:03.126Z,33.10
2023-03-20T22:56:32.934Z,33.80
2023-03-20T22:59:01.725Z,31.10
2023-03-20T23:01:30.973Z,31.30
2023-03-20T23:03:59.332Z,31.90
2023-03-20T23:06:35.571Z,34.40
2023-03-20T23:09:14.403Z,31.70
2023-03-20T23:11:44.108Z,35.10
2023-03-20T23:14:24.956Z,31.50
2023-03-20T23:16:56.596Z,32.30
2023-03-20T23:19:26.511Z,31.80
2023-03-20T23:21:56.779Z,32.30
2023-03-20T23:24:25.165Z,32.30
2023-03-20T23:26:58.664Z,32.90
2023-03-20T23:29:27.043Z,33.00
2023-03-20T23:31:55.761Z,32.30
2023-03-20T23:34:29.026Z,33.20
2023-03-20T23:36:57.461Z,32.50
2023-03-20T23:39:26.196Z,33.30
2023-03-20T23:42:12.176Z,32.80
2023-03-20T23:44:49.904Z,33.90
2023-03-20T23:47:27.646Z,35.00
2023-03-20T23:49:58.479Z,35.40
2023-03-20T23:52:27.525Z,35.60
2023-03-20T23:54:56.417Z,35.20
2023-03-20T23:57:24.798Z,38.50
2023-03-20T23:59:53.389Z,38.80
